sensor_id;sensor_type;location;lat;lon;timestamp;P1;durP1;ratioP1;P2;durP2;ratioP2
71763;SDS011;59602;52.142;5.408;2023-08-30T00:01:02;3.55;;;1.83;;
71763;SDS011;59602;52.142;5.408;2023-08-30T00:03:29;4.53;;;2.03;;
71763;SDS011;59602;52.142;5.408;2023-08-30T00:05:55;3.93;;;1.97;;
71763;SDS011;59602;52.142;5.408;2023-08-30T00:08:28;4.07;;;2.05;;
71763;SDS011;59602;52.142;5.408;2023-08-30T00:10:55;3.40;;;1.88;;
71763;SDS011;59602;52.142;5.408;2023-08-30T00:13:25;4.28;;;2.03;;
71763;SDS011;59602;52.142;5.408;2023-08-30T00:15:52;4.80;;;2.28;;
71763;SDS011;59602;52.142;5.408;2023-08-30T00:18:19;5.13;;;2.13;;
71763;SDS011;59602;52.142;5.408;2023-08-30T00:20:47;4.25;;;1.85;;
71763;SDS011;59602;52.142;5.408;2023-08-30T00:23:13;7.38;;;2.25;;
71763;SDS011;59602;52.142;5.408;2023-08-30T00:25:40;4.60;;;2.08;;
71763;SDS011;59602;52.142;5.408;2023-08-30T00:28:07;3.70;;;1.95;;
71763;SDS011;59602;52.142;5.408;2023-08-30T00:30:34;3.80;;;2.27;;
71763;SDS011;59602;52.142;5.408;2023-08-30T00:33:01;4.47;;;2.10;;
71763;SDS011;59602;52.142;5.408;2023-08-30T00:35:28;5.90;;;2.20;;
71763;SDS011;59602;52.142;5.408;2023-08-30T00:37:56;5.57;;;2.45;;
71763;SDS011;59602;52.142;5.408;2023-08-30T00:40:23;4.65;;;2.17;;
71763;SDS011;59602;52.142;5.408;2023-08-30T00:42:51;5.17;;;2.60;;
71763;SDS011;59602;52.142;5.408;2023-08-30T00:45:17;6.30;;;2.53;;
71763;SDS011;59602;52.142;5.408;2023-08-30T00:47:44;3.80;;;2.13;;
71763;SDS011;59602;52.142;5.408;2023-08-30T00:50:12;7.80;;;3.20;;
71763;SDS011;59602;52.142;5.408;2023-08-30T00:52:39;4.72;;;2.47;;
71763;SDS011;59602;52.142;5.408;2023-08-30T00:55:06;5.60;;;2.47;;
71763;SDS011;59602;52.142;5.408;2023-08-30T00:57:33;4.00;;;2.40;;
71763;SDS011;59602;52.142;5.408;2023-08-30T01:00:00;6.30;;;2.80;;
71763;SDS011;59602;52.142;5.408;2023-08-30T01:02:31;5.57;;;3.00;;
71763;SDS011;59602;52.142;5.408;2023-08-30T01:04:58;5.88;;;2.80;;
71763;SDS011;59602;52.142;5.408;2023-08-30T01:07:24;5.77;;;2.83;;
71763;SDS011;59602;52.142;5.408;2023-08-30T01:09:53;8.40;;;2.88;;
71763;SDS011;59602;52.142;5.408;2023-08-30T01:12:22;6.05;;;2.97;;
71763;SDS011;59602;52.142;5.408;2023-08-30T01:14:57;4.90;;;2.47;;
71763;SDS011;59602;52.142;5.408;2023-08-30T01:17:27;6.78;;;2.85;;
71763;SDS011;59602;52.142;5.408;2023-08-30T01:19:57;7.23;;;2.83;;
71763;SDS011;59602;52.142;5.408;2023-08-30T01:22:29;5.97;;;2.55;;
71763;SDS011;59602;52.142;5.408;2023-08-30T01:28:04;6.13;;;2.80;;
71763;SDS011;59602;52.142;5.408;2023-08-30T01:30:33;9.23;;;3.03;;
71763;SDS011;59602;52.142;5.408;2023-08-30T01:33:01;6.07;;;3.00;;
71763;SDS011;59602;52.142;5.408;2023-08-30T01:35:30;4.80;;;2.50;;
71763;SDS011;59602;52.142;5.408;2023-08-30T01:37:59;6.25;;;3.00;;
71763;SDS011;59602;52.142;5.408;2023-08-30T01:40:28;5.40;;;2.95;;
71763;SDS011;59602;52.142;5.408;2023-08-30T01:43:03;5.50;;;2.50;;
71763;SDS011;59602;52.142;5.408;2023-08-30T01:45:33;6.50;;;3.17;;
71763;SDS011;59602;52.142;5.408;2023-08-30T01:48:02;7.68;;;3.25;;
71763;SDS011;59602;52.142;5.408;2023-08-30T01:50:30;5.78;;;2.88;;
71763;SDS011;59602;52.142;5.408;2023-08-30T01:52:57;5.00;;;2.58;;
71763;SDS011;59602;52.142;5.408;2023-08-30T01:55:25;5.53;;;2.60;;
71763;SDS011;59602;52.142;5.408;2023-08-30T01:57:54;5.50;;;2.70;;
71763;SDS011;59602;52.142;5.408;2023-08-30T02:00:21;4.93;;;2.88;;
71763;SDS011;59602;52.142;5.408;2023-08-30T02:02:48;5.35;;;3.00;;
71763;SDS011;59602;52.142;5.408;2023-08-30T02:05:14;5.20;;;3.00;;
71763;SDS011;59602;52.142;5.408;2023-08-30T02:10:09;6.03;;;2.90;;
71763;SDS011;59602;52.142;5.408;2023-08-30T02:12:44;7.97;;;2.95;;
71763;SDS011;59602;52.142;5.408;2023-08-30T02:15:16;6.53;;;2.90;;
71763;SDS011;59602;52.142;5.408;2023-08-30T02:17:45;4.80;;;2.50;;
71763;SDS011;59602;52.142;5.408;2023-08-30T02:20:12;6.32;;;2.80;;
71763;SDS011;59602;52.142;5.408;2023-08-30T02:22:39;5.87;;;3.07;;
71763;SDS011;59602;52.142;5.408;2023-08-30T02:25:06;8.15;;;3.10;;
71763;SDS011;59602;52.142;5.408;2023-08-30T02:27:34;6.63;;;3.13;;
71763;SDS011;59602;52.142;5.408;2023-08-30T02:30:02;5.30;;;2.75;;
71763;SDS011;59602;52.142;5.408;2023-08-30T02:32:29;7.45;;;3.50;;
71763;SDS011;59602;52.142;5.408;2023-08-30T02:34:56;6.67;;;3.00;;
71763;SDS011;59602;52.142;5.408;2023-08-30T02:37:23;9.25;;;3.25;;
71763;SDS011;59602;52.142;5.408;2023-08-30T02:39:50;7.40;;;3.13;;
71763;SDS011;59602;52.142;5.408;2023-08-30T02:42:17;7.70;;;3.03;;
71763;SDS011;59602;52.142;5.408;2023-08-30T02:44:43;5.95;;;3.00;;
71763;SDS011;59602;52.142;5.408;2023-08-30T02:47:10;5.30;;;2.73;;
71763;SDS011;59602;52.142;5.408;2023-08-30T02:49:37;6.93;;;2.90;;
71763;SDS011;59602;52.142;5.408;2023-08-30T02:52:03;7.97;;;3.38;;
71763;SDS011;59602;52.142;5.408;2023-08-30T02:54:30;8.10;;;3.40;;
71763;SDS011;59602;52.142;5.408;2023-08-30T02:56:56;7.45;;;3.22;;
71763;SDS011;59602;52.142;5.408;2023-08-30T02:59:23;8.70;;;3.50;;
71763;SDS011;59602;52.142;5.408;2023-08-30T03:01:50;6.68;;;3.13;;
71763;SDS011;59602;52.142;5.408;2023-08-30T03:04:16;6.75;;;2.88;;
71763;SDS011;59602;52.142;5.408;2023-08-30T03:06:43;6.47;;;3.40;;
71763;SDS011;59602;52.142;5.408;2023-08-30T03:09:09;11.35;;;4.15;;
71763;SDS011;59602;52.142;5.408;2023-08-30T03:11:36;8.97;;;3.60;;
71763;SDS011;59602;52.142;5.408;2023-08-30T03:14:03;9.95;;;3.88;;
71763;SDS011;59602;52.142;5.408;2023-08-30T03:16:29;9.18;;;3.85;;
71763;SDS011;59602;52.142;5.408;2023-08-30T03:18:56;8.13;;;3.88;;
71763;SDS011;59602;52.142;5.408;2023-08-30T03:21:22;9.43;;;4.20;;
71763;SDS011;59602;52.142;5.408;2023-08-30T03:23:49;9.50;;;3.97;;
71763;SDS011;59602;52.142;5.408;2023-08-30T03:26:16;9.20;;;3.88;;
71763;SDS011;59602;52.142;5.408;2023-08-30T03:28:43;9.65;;;3.88;;
71763;SDS011;59602;52.142;5.408;2023-08-30T03:31:11;7.57;;;4.43;;
71763;SDS011;59602;52.142;5.408;2023-08-30T03:33:44;10.02;;;4.78;;
71763;SDS011;59602;52.142;5.408;2023-08-30T03:36:11;8.80;;;4.40;;
71763;SDS011;59602;52.142;5.408;2023-08-30T03:38:40;8.40;;;4.35;;
71763;SDS011;59602;52.142;5.408;2023-08-30T03:41:08;9.00;;;4.40;;
71763;SDS011;59602;52.142;5.408;2023-08-30T03:43:36;7.97;;;4.65;;
71763;SDS011;59602;52.142;5.408;2023-08-30T03:46:03;8.85;;;4.07;;
71763;SDS011;59602;52.142;5.408;2023-08-30T03:48:32;8.87;;;4.40;;
71763;SDS011;59602;52.142;5.408;2023-08-30T03:50:58;8.65;;;4.28;;
71763;SDS011;59602;52.142;5.408;2023-08-30T03:53:26;9.23;;;4.50;;
71763;SDS011;59602;52.142;5.408;2023-08-30T03:55:53;10.73;;;4.57;;
71763;SDS011;59602;52.142;5.408;2023-08-30T03:58:19;9.68;;;4.03;;
71763;SDS011;59602;52.142;5.408;2023-08-30T04:00:46;9.57;;;4.50;;
71763;SDS011;59602;52.142;5.408;2023-08-30T04:03:13;10.68;;;4.55;;
71763;SDS011;59602;52.142;5.408;2023-08-30T04:05:41;10.70;;;4.63;;
71763;SDS011;59602;52.142;5.408;2023-08-30T04:08:09;9.73;;;4.57;;
71763;SDS011;59602;52.142;5.408;2023-08-30T04:10:38;9.63;;;4.63;;
71763;SDS011;59602;52.142;5.408;2023-08-30T04:13:06;8.83;;;4.47;;
71763;SDS011;59602;52.142;5.408;2023-08-30T04:15:34;8.82;;;4.65;;
71763;SDS011;59602;52.142;5.408;2023-08-30T04:18:02;8.80;;;4.40;;
71763;SDS011;59602;52.142;5.408;2023-08-30T04:20:30;9.57;;;4.22;;
71763;SDS011;59602;52.142;5.408;2023-08-30T04:22:59;9.95;;;4.45;;
71763;SDS011;59602;52.142;5.408;2023-08-30T04:25:28;10.03;;;4.13;;
71763;SDS011;59602;52.142;5.408;2023-08-30T04:27:55;9.27;;;4.38;;
71763;SDS011;59602;52.142;5.408;2023-08-30T04:30:21;10.20;;;4.15;;
71763;SDS011;59602;52.142;5.408;2023-08-30T04:32:48;10.02;;;4.70;;
71763;SDS011;59602;52.142;5.408;2023-08-30T04:35:15;9.50;;;4.57;;
71763;SDS011;59602;52.142;5.408;2023-08-30T04:37:42;13.23;;;4.67;;
71763;SDS011;59602;52.142;5.408;2023-08-30T04:40:09;10.52;;;4.22;;
71763;SDS011;59602;52.142;5.408;2023-08-30T04:42:36;12.07;;;4.47;;
71763;SDS011;59602;52.142;5.408;2023-08-30T04:45:04;11.35;;;4.55;;
71763;SDS011;59602;52.142;5.408;2023-08-30T04:47:31;8.35;;;3.92;;
71763;SDS011;59602;52.142;5.408;2023-08-30T04:49:59;10.07;;;4.63;;
71763;SDS011;59602;52.142;5.408;2023-08-30T04:52:25;9.77;;;4.78;;
71763;SDS011;59602;52.142;5.408;2023-08-30T04:54:52;9.93;;;4.47;;
71763;SDS011;59602;52.142;5.408;2023-08-30T04:57:20;10.68;;;4.45;;
71763;SDS011;59602;52.142;5.408;2023-08-30T04:59:47;10.90;;;4.82;;
71763;SDS011;59602;52.142;5.408;2023-08-30T05:02:14;10.67;;;4.13;;
71763;SDS011;59602;52.142;5.408;2023-08-30T05:04:41;10.25;;;4.15;;
71763;SDS011;59602;52.142;5.408;2023-08-30T05:07:07;10.90;;;4.20;;
71763;SDS011;59602;52.142;5.408;2023-08-30T05:09:34;8.40;;;4.10;;
71763;SDS011;59602;52.142;5.408;2023-08-30T05:12:01;10.32;;;4.22;;
71763;SDS011;59602;52.142;5.408;2023-08-30T05:14:27;9.13;;;4.03;;
71763;SDS011;59602;52.142;5.408;2023-08-30T05:16:55;9.93;;;4.47;;
71763;SDS011;59602;52.142;5.408;2023-08-30T05:19:22;8.75;;;3.92;;
71763;SDS011;59602;52.142;5.408;2023-08-30T05:21:49;11.50;;;4.93;;
71763;SDS011;59602;52.142;5.408;2023-08-30T05:24:21;9.50;;;4.68;;
71763;SDS011;59602;52.142;5.408;2023-08-30T05:26:48;9.70;;;4.27;;
71763;SDS011;59602;52.142;5.408;2023-08-30T05:29:15;8.27;;;4.47;;
71763;SDS011;59602;52.142;5.408;2023-08-30T05:31:41;11.20;;;3.90;;
71763;SDS011;59602;52.142;5.408;2023-08-30T05:34:09;9.63;;;4.40;;
71763;SDS011;59602;52.142;5.408;2023-08-30T05:36:38;11.27;;;4.43;;
71763;SDS011;59602;52.142;5.408;2023-08-30T05:39:05;8.60;;;4.20;;
71763;SDS011;59602;52.142;5.408;2023-08-30T05:41:32;9.77;;;4.25;;
71763;SDS011;59602;52.142;5.408;2023-08-30T05:43:59;9.55;;;4.40;;
71763;SDS011;59602;52.142;5.408;2023-08-30T05:46:26;9.60;;;4.47;;
71763;SDS011;59602;52.142;5.408;2023-08-30T05:48:52;9.65;;;4.57;;
71763;SDS011;59602;52.142;5.408;2023-08-30T05:51:22;9.10;;;4.20;;
71763;SDS011;59602;52.142;5.408;2023-08-30T05:53:50;10.60;;;4.30;;
71763;SDS011;59602;52.142;5.408;2023-08-30T05:56:18;11.02;;;4.35;;
71763;SDS011;59602;52.142;5.408;2023-08-30T05:58:44;10.20;;;4.35;;
71763;SDS011;59602;52.142;5.408;2023-08-30T06:01:11;8.90;;;4.55;;
71763;SDS011;59602;52.142;5.408;2023-08-30T06:03:38;11.27;;;4.87;;
71763;SDS011;59602;52.142;5.408;2023-08-30T06:06:04;9.15;;;4.40;;
71763;SDS011;59602;52.142;5.408;2023-08-30T06:08:31;10.45;;;4.40;;
71763;SDS011;59602;52.142;5.408;2023-08-30T06:10:58;9.18;;;4.10;;
71763;SDS011;59602;52.142;5.408;2023-08-30T06:13:25;8.75;;;4.63;;
71763;SDS011;59602;52.142;5.408;2023-08-30T06:15:51;11.20;;;4.43;;
71763;SDS011;59602;52.142;5.408;2023-08-30T06:18:18;10.85;;;4.47;;
71763;SDS011;59602;52.142;5.408;2023-08-30T06:20:45;10.95;;;4.30;;
71763;SDS011;59602;52.142;5.408;2023-08-30T06:23:13;10.18;;;4.38;;
71763;SDS011;59602;52.142;5.408;2023-08-30T06:25:41;9.00;;;4.05;;
71763;SDS011;59602;52.142;5.408;2023-08-30T06:28:08;9.87;;;4.47;;
71763;SDS011;59602;52.142;5.408;2023-08-30T06:30:35;12.07;;;4.47;;
71763;SDS011;59602;52.142;5.408;2023-08-30T06:33:02;9.38;;;4.57;;
71763;SDS011;59602;52.142;5.408;2023-08-30T06:35:35;12.32;;;4.90;;
71763;SDS011;59602;52.142;5.408;2023-08-30T06:38:05;12.10;;;4.40;;
71763;SDS011;59602;52.142;5.408;2023-08-30T06:40:32;9.97;;;5.10;;
71763;SDS011;59602;52.142;5.408;2023-08-30T06:42:59;10.23;;;4.40;;
71763;SDS011;59602;52.142;5.408;2023-08-30T06:45:25;11.57;;;4.95;;
71763;SDS011;59602;52.142;5.408;2023-08-30T06:47:52;11.55;;;4.93;;
71763;SDS011;59602;52.142;5.408;2023-08-30T06:50:19;10.70;;;4.38;;
71763;SDS011;59602;52.142;5.408;2023-08-30T06:52:46;10.20;;;4.63;;
71763;SDS011;59602;52.142;5.408;2023-08-30T06:55:12;10.18;;;4.43;;
71763;SDS011;59602;52.142;5.408;2023-08-30T06:57:41;15.80;;;4.75;;
71763;SDS011;59602;52.142;5.408;2023-08-30T07:00:08;8.65;;;4.45;;
71763;SDS011;59602;52.142;5.408;2023-08-30T07:02:36;10.65;;;4.50;;
71763;SDS011;59602;52.142;5.408;2023-08-30T07:05:06;10.77;;;4.97;;
71763;SDS011;59602;52.142;5.408;2023-08-30T07:07:38;8.05;;;3.97;;
71763;SDS011;59602;52.142;5.408;2023-08-30T07:10:08;9.18;;;4.22;;
71763;SDS011;59602;52.142;5.408;2023-08-30T07:12:35;10.10;;;4.93;;
71763;SDS011;59602;52.142;5.408;2023-08-30T07:15:05;10.80;;;4.60;;
71763;SDS011;59602;52.142;5.408;2023-08-30T07:17:33;8.67;;;4.20;;
71763;SDS011;59602;52.142;5.408;2023-08-30T07:20:18;8.65;;;4.38;;
71763;SDS011;59602;52.142;5.408;2023-08-30T07:22:45;10.98;;;4.28;;
71763;SDS011;59602;52.142;5.408;2023-08-30T07:25:12;9.60;;;4.70;;
71763;SDS011;59602;52.142;5.408;2023-08-30T07:27:40;8.35;;;3.90;;
71763;SDS011;59602;52.142;5.408;2023-08-30T07:30:07;8.63;;;4.10;;
71763;SDS011;59602;52.142;5.408;2023-08-30T07:32:36;8.15;;;4.20;;
71763;SDS011;59602;52.142;5.408;2023-08-30T07:35:09;10.00;;;4.28;;
71763;SDS011;59602;52.142;5.408;2023-08-30T07:37:55;8.90;;;4.13;;
71763;SDS011;59602;52.142;5.408;2023-08-30T07:40:48;10.73;;;4.43;;
71763;SDS011;59602;52.142;5.408;2023-08-30T07:43:15;7.93;;;4.10;;
71763;SDS011;59602;52.142;5.408;2023-08-30T07:45:42;8.70;;;3.92;;
71763;SDS011;59602;52.142;5.408;2023-08-30T07:48:08;8.75;;;4.07;;
71763;SDS011;59602;52.142;5.408;2023-08-30T07:50:35;9.25;;;4.10;;
71763;SDS011;59602;52.142;5.408;2023-08-30T07:53:23;8.80;;;3.92;;
71763;SDS011;59602;52.142;5.408;2023-08-30T07:55:50;10.27;;;4.27;;
71763;SDS011;59602;52.142;5.408;2023-08-30T07:58:17;8.50;;;4.07;;
71763;SDS011;59602;52.142;5.408;2023-08-30T08:00:44;9.57;;;4.10;;
71763;SDS011;59602;52.142;5.408;2023-08-30T08:03:10;8.95;;;3.92;;
71763;SDS011;59602;52.142;5.408;2023-08-30T08:05:37;6.45;;;3.45;;
71763;SDS011;59602;52.142;5.408;2023-08-30T08:11:48;8.73;;;3.40;;
71763;SDS011;59602;52.142;5.408;2023-08-30T08:14:17;8.77;;;3.33;;
71763;SDS011;59602;52.142;5.408;2023-08-30T08:16:44;8.68;;;3.83;;
71763;SDS011;59602;52.142;5.408;2023-08-30T08:19:11;9.13;;;3.60;;
71763;SDS011;59602;52.142;5.408;2023-08-30T08:21:38;6.60;;;3.20;;
71763;SDS011;59602;52.142;5.408;2023-08-30T08:24:08;7.78;;;2.97;;
71763;SDS011;59602;52.142;5.408;2023-08-30T08:26:57;6.43;;;3.30;;
71763;SDS011;59602;52.142;5.408;2023-08-30T08:29:44;87.30;;;22.55;;
71763;SDS011;59602;52.142;5.408;2023-08-30T08:32:57;11.73;;;4.82;;
71763;SDS011;59602;52.142;5.408;2023-08-30T08:35:24;7.00;;;3.03;;
71763;SDS011;59602;52.142;5.408;2023-08-30T08:37:50;6.15;;;2.78;;
71763;SDS011;59602;52.142;5.408;2023-08-30T08:40:17;6.68;;;3.00;;
71763;SDS011;59602;52.142;5.408;2023-08-30T08:42:57;9.90;;;3.85;;
71763;SDS011;59602;52.142;5.408;2023-08-30T08:45:25;7.57;;;3.63;;
71763;SDS011;59602;52.142;5.408;2023-08-30T08:47:52;14.13;;;10.80;;
71763;SDS011;59602;52.142;5.408;2023-08-30T08:50:45;6.40;;;3.47;;
71763;SDS011;59602;52.142;5.408;2023-08-30T08:53:28;5.18;;;2.80;;
71763;SDS011;59602;52.142;5.408;2023-08-30T08:55:58;7.05;;;2.70;;
71763;SDS011;59602;52.142;5.408;2023-08-30T08:58:32;5.63;;;2.67;;
71763;SDS011;59602;52.142;5.408;2023-08-30T09:01:15;7.93;;;3.03;;
71763;SDS011;59602;52.142;5.408;2023-08-30T09:04:24;6.28;;;2.35;;
71763;SDS011;59602;52.142;5.408;2023-08-30T09:07:06;10.48;;;3.50;;
71763;SDS011;59602;52.142;5.408;2023-08-30T09:10:31;7.25;;;2.90;;
71763;SDS011;59602;52.142;5.408;2023-08-30T09:13:43;5.80;;;2.88;;
71763;SDS011;59602;52.142;5.408;2023-08-30T09:32:37;5.70;;;2.58;;
71763;SDS011;59602;52.142;5.408;2023-08-30T09:47:22;4.20;;;2.53;;
71763;SDS011;59602;52.142;5.408;2023-08-30T10:23:52;8.07;;;4.50;;
71763;SDS011;59602;52.142;5.408;2023-08-30T10:30:43;6.97;;;4.00;;
71763;SDS011;59602;52.142;5.408;2023-08-30T10:33:48;7.10;;;4.43;;
71763;SDS011;59602;52.142;5.408;2023-08-30T10:37:09;8.38;;;4.32;;
71763;SDS011;59602;52.142;5.408;2023-08-30T10:40:08;6.82;;;4.65;;
71763;SDS011;59602;52.142;5.408;2023-08-30T10:42:59;7.35;;;4.18;;
71763;SDS011;59602;52.142;5.408;2023-08-30T10:45:37;8.13;;;4.00;;
71763;SDS011;59602;52.142;5.408;2023-08-30T10:48:04;5.85;;;4.22;;
71763;SDS011;59602;52.142;5.408;2023-08-30T10:50:32;7.63;;;3.95;;
71763;SDS011;59602;52.142;5.408;2023-08-30T10:53:00;6.28;;;3.38;;
71763;SDS011;59602;52.142;5.408;2023-08-30T10:55:27;4.50;;;2.80;;
71763;SDS011;59602;52.142;5.408;2023-08-30T10:57:58;6.43;;;2.40;;
71763;SDS011;59602;52.142;5.408;2023-08-30T11:00:28;2.97;;;2.30;;
71763;SDS011;59602;52.142;5.408;2023-08-30T11:02:58;4.60;;;2.10;;
71763;SDS011;59602;52.142;5.408;2023-08-30T11:05:55;4.20;;;2.17;;
71763;SDS011;59602;52.142;5.408;2023-08-30T11:08:58;5.47;;;2.63;;
71763;SDS011;59602;52.142;5.408;2023-08-30T11:16:21;4.85;;;1.20;;
71763;SDS011;59602;52.142;5.408;2023-08-30T11:19:09;6.10;;;1.10;;
71763;SDS011;59602;52.142;5.408;2023-08-30T11:22:22;3.75;;;1.05;;
71763;SDS011;59602;52.142;5.408;2023-08-30T11:25:11;3.33;;;0.85;;
71763;SDS011;59602;52.142;5.408;2023-08-30T11:28:45;4.17;;;1.07;;
71763;SDS011;59602;52.142;5.408;2023-08-30T11:31:23;4.90;;;0.90;;
71763;SDS011;59602;52.142;5.408;2023-08-30T11:33:55;4.80;;;0.80;;
71763;SDS011;59602;52.142;5.408;2023-08-30T11:36:23;3.22;;;0.93;;
71763;SDS011;59602;52.142;5.408;2023-08-30T11:38:53;4.25;;;0.90;;
71763;SDS011;59602;52.142;5.408;2023-08-30T11:41:20;4.27;;;0.73;;
71763;SDS011;59602;52.142;5.408;2023-08-30T11:43:49;4.93;;;1.10;;
71763;SDS011;59602;52.142;5.408;2023-08-30T11:46:17;3.97;;;1.00;;
71763;SDS011;59602;52.142;5.408;2023-08-30T11:48:44;7.95;;;1.08;;
71763;SDS011;59602;52.142;5.408;2023-08-30T11:51:12;3.78;;;0.70;;
71763;SDS011;59602;52.142;5.408;2023-08-30T11:53:39;6.83;;;1.37;;
71763;SDS011;59602;52.142;5.408;2023-08-30T11:56:07;3.45;;;0.80;;
71763;SDS011;59602;52.142;5.408;2023-08-30T11:58:35;4.07;;;0.82;;
71763;SDS011;59602;52.142;5.408;2023-08-30T12:01:02;5.63;;;1.23;;
71763;SDS011;59602;52.142;5.408;2023-08-30T12:03:30;3.70;;;0.70;;
71763;SDS011;59602;52.142;5.408;2023-08-30T12:05:58;4.20;;;1.00;;
71763;SDS011;59602;52.142;5.408;2023-08-30T12:08:26;4.85;;;0.98;;
71763;SDS011;59602;52.142;5.408;2023-08-30T12:10:54;5.15;;;1.00;;
71763;SDS011;59602;52.142;5.408;2023-08-30T12:13:23;3.90;;;1.10;;
71763;SDS011;59602;52.142;5.408;2023-08-30T12:15:51;2.92;;;0.82;;
71763;SDS011;59602;52.142;5.408;2023-08-30T12:18:24;3.90;;;0.80;;
71763;SDS011;59602;52.142;5.408;2023-08-30T12:20:58;6.38;;;1.35;;
71763;SDS011;59602;52.142;5.408;2023-08-30T12:23:26;3.20;;;0.60;;
71763;SDS011;59602;52.142;5.408;2023-08-30T12:28:26;2.78;;;0.60;;
71763;SDS011;59602;52.142;5.408;2023-08-30T12:30:54;5.30;;;0.50;;
71763;SDS011;59602;52.142;5.408;2023-08-30T12:33:21;3.97;;;0.95;;
71763;SDS011;59602;52.142;5.408;2023-08-30T12:35:48;4.40;;;0.60;;
71763;SDS011;59602;52.142;5.408;2023-08-30T12:38:15;4.05;;;0.50;;
71763;SDS011;59602;52.142;5.408;2023-08-30T12:40:47;3.90;;;0.60;;
71763;SDS011;59602;52.142;5.408;2023-08-30T12:43:15;4.47;;;0.60;;
71763;SDS011;59602;52.142;5.408;2023-08-30T12:45:43;5.10;;;0.70;;
71763;SDS011;59602;52.142;5.408;2023-08-30T12:48:11;3.60;;;0.65;;
71763;SDS011;59602;52.142;5.408;2023-08-30T12:50:41;4.40;;;0.80;;
71763;SDS011;59602;52.142;5.408;2023-08-30T12:53:09;2.70;;;0.65;;
71763;SDS011;59602;52.142;5.408;2023-08-30T12:55:37;3.20;;;0.40;;
71763;SDS011;59602;52.142;5.408;2023-08-30T12:58:07;5.88;;;1.17;;
71763;SDS011;59602;52.142;5.408;2023-08-30T13:00:34;5.75;;;1.13;;
71763;SDS011;59602;52.142;5.408;2023-08-30T13:03:01;3.03;;;0.50;;
71763;SDS011;59602;52.142;5.408;2023-08-30T13:05:29;4.85;;;0.43;;
71763;SDS011;59602;52.142;5.408;2023-08-30T13:07:58;3.77;;;0.57;;
71763;SDS011;59602;52.142;5.408;2023-08-30T13:10:25;2.35;;;0.45;;
71763;SDS011;59602;52.142;5.408;2023-08-30T13:12:52;5.13;;;0.65;;
71763;SDS011;59602;52.142;5.408;2023-08-30T13:15:19;4.43;;;0.60;;
71763;SDS011;59602;52.142;5.408;2023-08-30T13:17:46;5.25;;;0.57;;
71763;SDS011;59602;52.142;5.408;2023-08-30T13:20:12;2.10;;;0.30;;
71763;SDS011;59602;52.142;5.408;2023-08-30T13:22:39;3.65;;;0.68;;
71763;SDS011;59602;52.142;5.408;2023-08-30T13:25:06;2.83;;;0.47;;
71763;SDS011;59602;52.142;5.408;2023-08-30T13:27:34;2.97;;;0.60;;
71763;SDS011;59602;52.142;5.408;2023-08-30T13:30:01;6.40;;;0.80;;
71763;SDS011;59602;52.142;5.408;2023-08-30T13:32:28;3.43;;;0.70;;
71763;SDS011;59602;52.142;5.408;2023-08-30T13:34:55;2.50;;;0.40;;
71763;SDS011;59602;52.142;5.408;2023-08-30T13:37:21;6.00;;;0.60;;
71763;SDS011;59602;52.142;5.408;2023-08-30T13:39:50;6.07;;;0.45;;
71763;SDS011;59602;52.142;5.408;2023-08-30T13:42:18;3.42;;;0.50;;
71763;SDS011;59602;52.142;5.408;2023-08-30T13:44:45;5.23;;;0.40;;
71763;SDS011;59602;52.142;5.408;2023-08-30T13:47:11;2.70;;;0.40;;
71763;SDS011;59602;52.142;5.408;2023-08-30T13:49:38;5.10;;;0.70;;
71763;SDS011;59602;52.142;5.408;2023-08-30T13:52:05;1.88;;;0.40;;
71763;SDS011;59602;52.142;5.408;2023-08-30T13:54:32;5.50;;;0.73;;
71763;SDS011;59602;52.142;5.408;2023-08-30T13:56:58;2.90;;;0.60;;
71763;SDS011;59602;52.142;5.408;2023-08-30T13:59:25;3.17;;;0.80;;
71763;SDS011;59602;52.142;5.408;2023-08-30T14:01:54;3.97;;;0.50;;
71763;SDS011;59602;52.142;5.408;2023-08-30T14:04:22;6.88;;;0.73;;
71763;SDS011;59602;52.142;5.408;2023-08-30T14:06:48;3.08;;;0.50;;
71763;SDS011;59602;52.142;5.408;2023-08-30T14:09:15;6.70;;;1.53;;
71763;SDS011;59602;52.142;5.408;2023-08-30T14:11:41;1.83;;;0.30;;
71763;SDS011;59602;52.142;5.408;2023-08-30T14:14:10;2.08;;;0.70;;
71763;SDS011;59602;52.142;5.408;2023-08-30T14:16:36;1.10;;;0.20;;
71763;SDS011;59602;52.142;5.408;2023-08-30T14:19:03;3.00;;;0.38;;
71763;SDS011;59602;52.142;5.408;2023-08-30T14:21:32;2.17;;;0.30;;
71763;SDS011;59602;52.142;5.408;2023-08-30T14:23:59;2.78;;;0.20;;
71763;SDS011;59602;52.142;5.408;2023-08-30T14:26:27;2.55;;;0.30;;
71763;SDS011;59602;52.142;5.408;2023-08-30T14:28:54;3.88;;;0.40;;
71763;SDS011;59602;52.142;5.408;2023-08-30T14:31:21;4.05;;;0.52;;
71763;SDS011;59602;52.142;5.408;2023-08-30T14:33:48;2.80;;;0.50;;
71763;SDS011;59602;52.142;5.408;2023-08-30T14:36:16;4.00;;;0.40;;
71763;SDS011;59602;52.142;5.408;2023-08-30T14:38:42;2.45;;;0.38;;
71763;SDS011;59602;52.142;5.408;2023-08-30T14:41:09;3.47;;;0.40;;
71763;SDS011;59602;52.142;5.408;2023-08-30T14:43:36;3.20;;;0.50;;
71763;SDS011;59602;52.142;5.408;2023-08-30T14:46:04;5.70;;;0.57;;
71763;SDS011;59602;52.142;5.408;2023-08-30T14:48:37;2.70;;;0.35;;
71763;SDS011;59602;52.142;5.408;2023-08-30T14:51:04;5.90;;;0.70;;
71763;SDS011;59602;52.142;5.408;2023-08-30T14:53:34;3.30;;;0.63;;
71763;SDS011;59602;52.142;5.408;2023-08-30T14:56:52;2.58;;;0.50;;
71763;SDS011;59602;52.142;5.408;2023-08-30T14:59:05;3.00;;;0.50;;
71763;SDS011;59602;52.142;5.408;2023-08-30T15:01:33;5.20;;;0.57;;
71763;SDS011;59602;52.142;5.408;2023-08-30T15:04:00;6.55;;;0.50;;
71763;SDS011;59602;52.142;5.408;2023-08-30T15:06:38;3.20;;;0.57;;
71763;SDS011;59602;52.142;5.408;2023-08-30T15:09:16;3.17;;;0.47;;
71763;SDS011;59602;52.142;5.408;2023-08-30T15:11:46;4.03;;;0.47;;
71763;SDS011;59602;52.142;5.408;2023-08-30T15:14:13;3.15;;;0.57;;
71763;SDS011;59602;52.142;5.408;2023-08-30T15:16:40;3.65;;;0.45;;
71763;SDS011;59602;52.142;5.408;2023-08-30T15:19:16;5.45;;;0.50;;
71763;SDS011;59602;52.142;5.408;2023-08-30T15:21:45;2.67;;;0.60;;
71763;SDS011;59602;52.142;5.408;2023-08-30T15:24:15;1.20;;;0.30;;
71763;SDS011;59602;52.142;5.408;2023-08-30T15:30:26;4.38;;;0.40;;
71763;SDS011;59602;52.142;5.408;2023-08-30T15:33:28;2.10;;;0.40;;
71763;SDS011;59602;52.142;5.408;2023-08-30T15:35:57;2.50;;;0.38;;
71763;SDS011;59602;52.142;5.408;2023-08-30T15:38:24;2.13;;;0.40;;
71763;SDS011;59602;52.142;5.408;2023-08-30T15:40:53;2.65;;;0.50;;
71763;SDS011;59602;52.142;5.408;2023-08-30T15:43:21;3.47;;;0.40;;
71763;SDS011;59602;52.142;5.408;2023-08-30T15:45:49;1.35;;;0.20;;
71763;SDS011;59602;52.142;5.408;2023-08-30T15:48:22;2.40;;;0.30;;
71763;SDS011;59602;52.142;5.408;2023-08-30T15:51:14;2.07;;;0.30;;
71763;SDS011;59602;52.142;5.408;2023-08-30T15:53:49;2.25;;;0.50;;
71763;SDS011;59602;52.142;5.408;2023-08-30T15:56:16;2.13;;;0.55;;
71763;SDS011;59602;52.142;5.408;2023-08-30T15:58:43;2.78;;;0.25;;
71763;SDS011;59602;52.142;5.408;2023-08-30T16:01:10;2.90;;;0.43;;
71763;SDS011;59602;52.142;5.408;2023-08-30T16:03:36;2.43;;;0.30;;
71763;SDS011;59602;52.142;5.408;2023-08-30T16:06:03;4.20;;;0.40;;
71763;SDS011;59602;52.142;5.408;2023-08-30T16:08:30;1.70;;;0.25;;
71763;SDS011;59602;52.142;5.408;2023-08-30T16:10:57;1.25;;;0.30;;
71763;SDS011;59602;52.142;5.408;2023-08-30T16:13:25;3.88;;;0.40;;
71763;SDS011;59602;52.142;5.408;2023-08-30T16:15:52;3.13;;;0.40;;
71763;SDS011;59602;52.142;5.408;2023-08-30T16:18:19;4.70;;;0.38;;
71763;SDS011;59602;52.142;5.408;2023-08-30T16:20:48;1.25;;;0.30;;
71763;SDS011;59602;52.142;5.408;2023-08-30T16:23:17;3.28;;;0.40;;
71763;SDS011;59602;52.142;5.408;2023-08-30T16:25:44;2.75;;;0.30;;
71763;SDS011;59602;52.142;5.408;2023-08-30T16:28:11;2.67;;;0.33;;
71763;SDS011;59602;52.142;5.408;2023-08-30T16:30:38;2.60;;;0.50;;